sensor_id;sensor_type;location;lat;lon;timestamp;P1;durP1;ratioP1;P2;durP2;ratioP2
37239;SDS011;23130;48.760;9.178;2023-05-07T00:01:48;1.80;;;1.65;;
37239;SDS011;23130;48.760;9.178;2023-05-07T00:04:13;3.65;;;1.90;;
37239;SDS011;23130;48.760;9.178;2023-05-07T00:06:39;2.33;;;1.50;;
37239;SDS011;23130;48.760;9.178;2023-05-07T00:09:05;3.15;;;2.40;;
37239;SDS011;23130;48.760;9.178;2023-05-07T00:11:31;4.13;;;1.80;;
37239;SDS011;23130;48.760;9.178;2023-05-07T00:13:57;2.13;;;1.33;;
37239;SDS011;23130;48.760;9.178;2023-05-07T00:16:22;4.38;;;1.52;;
37239;SDS011;23130;48.760;9.178;2023-05-07T00:18:48;4.97;;;2.05;;
37239;SDS011;23130;48.760;9.178;2023-05-07T00:21:13;4.20;;;2.10;;
37239;SDS011;23130;48.760;9.178;2023-05-07T00:23:39;11.90;;;2.03;;
37239;SDS011;23130;48.760;9.178;2023-05-07T00:26:05;3.92;;;2.08;;
37239;SDS011;23130;48.760;9.178;2023-05-07T00:28:30;4.30;;;2.13;;
37239;SDS011;23130;48.760;9.178;2023-05-07T00:30:56;2.67;;;1.98;;
37239;SDS011;23130;48.760;9.178;2023-05-07T00:33:22;3.10;;;1.83;;
37239;SDS011;23130;48.760;9.178;2023-05-07T00:35:47;2.65;;;1.67;;
37239;SDS011;23130;48.760;9.178;2023-05-07T00:38:13;3.28;;;2.33;;
37239;SDS011;23130;48.760;9.178;2023-05-07T00:40:39;2.58;;;1.92;;
37239;SDS011;23130;48.760;9.178;2023-05-07T00:43:04;3.08;;;1.90;;
37239;SDS011;23130;48.760;9.178;2023-05-07T00:45:30;3.03;;;2.20;;
37239;SDS011;23130;48.760;9.178;2023-05-07T00:47:59;3.90;;;2.78;;
37239;SDS011;23130;48.760;9.178;2023-05-07T00:50:26;3.70;;;2.65;;
37239;SDS011;23130;48.760;9.178;2023-05-07T00:52:53;5.72;;;3.35;;
37239;SDS011;23130;48.760;9.178;2023-05-07T00:55:20;4.50;;;2.97;;
37239;SDS011;23130;48.760;9.178;2023-05-07T00:57:46;4.65;;;2.92;;
37239;SDS011;23130;48.760;9.178;2023-05-07T01:00:12;4.85;;;2.95;;
37239;SDS011;23130;48.760;9.178;2023-05-07T01:02:38;6.88;;;4.22;;
37239;SDS011;23130;48.760;9.178;2023-05-07T01:05:05;5.85;;;4.10;;
37239;SDS011;23130;48.760;9.178;2023-05-07T01:07:32;7.13;;;4.28;;
37239;SDS011;23130;48.760;9.178;2023-05-07T01:09:59;6.13;;;3.53;;
37239;SDS011;23130;48.760;9.178;2023-05-07T01:12:25;9.00;;;4.07;;
37239;SDS011;23130;48.760;9.178;2023-05-07T01:14:52;6.53;;;4.30;;
37239;SDS011;23130;48.760;9.178;2023-05-07T01:17:18;8.32;;;5.30;;
37239;SDS011;23130;48.760;9.178;2023-05-07T01:19:44;6.35;;;4.03;;
37239;SDS011;23130;48.760;9.178;2023-05-07T01:22:09;5.90;;;4.15;;
37239;SDS011;23130;48.760;9.178;2023-05-07T01:24:40;6.07;;;4.65;;
37239;SDS011;23130;48.760;9.178;2023-05-07T01:27:06;7.43;;;4.30;;
37239;SDS011;23130;48.760;9.178;2023-05-07T01:29:32;7.97;;;5.07;;
37239;SDS011;23130;48.760;9.178;2023-05-07T01:31:58;6.80;;;3.75;;
37239;SDS011;23130;48.760;9.178;2023-05-07T01:34:26;7.93;;;4.82;;
37239;SDS011;23130;48.760;9.178;2023-05-07T01:36:55;4.95;;;3.92;;
37239;SDS011;23130;48.760;9.178;2023-05-07T01:39:26;6.05;;;3.28;;
37239;SDS011;23130;48.760;9.178;2023-05-07T01:41:54;4.55;;;2.65;;
37239;SDS011;23130;48.760;9.178;2023-05-07T01:44:21;4.65;;;3.20;;
37239;SDS011;23130;48.760;9.178;2023-05-07T01:46:47;4.03;;;2.85;;
37239;SDS011;23130;48.760;9.178;2023-05-07T01:49:14;4.70;;;3.22;;
37239;SDS011;23130;48.760;9.178;2023-05-07T01:51:41;5.60;;;3.60;;
37239;SDS011;23130;48.760;9.178;2023-05-07T01:54:08;6.25;;;3.58;;
37239;SDS011;23130;48.760;9.178;2023-05-07T01:56:34;6.07;;;3.75;;
37239;SDS011;23130;48.760;9.178;2023-05-07T01:59:00;5.60;;;4.15;;
37239;SDS011;23130;48.760;9.178;2023-05-07T02:01:25;4.90;;;3.80;;
37239;SDS011;23130;48.760;9.178;2023-05-07T02:03:51;6.70;;;3.45;;
37239;SDS011;23130;48.760;9.178;2023-05-07T02:06:16;5.40;;;4.00;;
37239;SDS011;23130;48.760;9.178;2023-05-07T02:08:42;8.07;;;4.05;;
37239;SDS011;23130;48.760;9.178;2023-05-07T02:11:08;7.15;;;4.13;;
37239;SDS011;23130;48.760;9.178;2023-05-07T02:13:34;5.30;;;3.80;;
37239;SDS011;23130;48.760;9.178;2023-05-07T02:15:59;7.35;;;4.50;;
37239;SDS011;23130;48.760;9.178;2023-05-07T02:18:25;7.00;;;3.85;;
37239;SDS011;23130;48.760;9.178;2023-05-07T02:20:51;5.63;;;4.07;;
37239;SDS011;23130;48.760;9.178;2023-05-07T02:23:17;5.57;;;4.13;;
37239;SDS011;23130;48.760;9.178;2023-05-07T02:25:42;5.80;;;3.80;;
37239;SDS011;23130;48.760;9.178;2023-05-07T02:28:08;5.10;;;3.20;;
37239;SDS011;23130;48.760;9.178;2023-05-07T02:30:34;8.30;;;4.38;;
37239;SDS011;23130;48.760;9.178;2023-05-07T02:32:59;6.05;;;4.18;;
37239;SDS011;23130;48.760;9.178;2023-05-07T02:35:25;4.95;;;3.55;;
37239;SDS011;23130;48.760;9.178;2023-05-07T02:37:50;7.32;;;4.68;;
37239;SDS011;23130;48.760;9.178;2023-05-07T02:40:16;7.93;;;4.57;;
37239;SDS011;23130;48.760;9.178;2023-05-07T02:42:42;6.35;;;4.10;;
37239;SDS011;23130;48.760;9.178;2023-05-07T02:45:07;8.52;;;4.07;;
37239;SDS011;23130;48.760;9.178;2023-05-07T02:47:33;9.32;;;5.30;;
37239;SDS011;23130;48.760;9.178;2023-05-07T02:49:59;7.25;;;4.60;;
37239;SDS011;23130;48.760;9.178;2023-05-07T02:52:25;6.97;;;4.18;;
37239;SDS011;23130;48.760;9.178;2023-05-07T02:54:52;5.43;;;3.78;;
37239;SDS011;23130;48.760;9.178;2023-05-07T02:57:18;5.75;;;4.10;;
37239;SDS011;23130;48.760;9.178;2023-05-07T02:59:43;6.00;;;3.88;;
37239;SDS011;23130;48.760;9.178;2023-05-07T03:02:09;6.13;;;3.78;;
37239;SDS011;23130;48.760;9.178;2023-05-07T03:04:35;11.95;;;5.45;;
37239;SDS011;23130;48.760;9.178;2023-05-07T03:07:01;6.38;;;4.20;;
37239;SDS011;23130;48.760;9.178;2023-05-07T03:09:26;6.35;;;4.60;;
37239;SDS011;23130;48.760;9.178;2023-05-07T03:11:52;7.43;;;5.35;;
37239;SDS011;23130;48.760;9.178;2023-05-07T03:14:17;6.32;;;4.60;;
37239;SDS011;23130;48.760;9.178;2023-05-07T03:16:43;5.75;;;3.90;;
37239;SDS011;23130;48.760;9.178;2023-05-07T03:19:08;5.72;;;3.30;;
37239;SDS011;23130;48.760;9.178;2023-05-07T03:21:34;5.20;;;3.15;;
37239;SDS011;23130;48.760;9.178;2023-05-07T03:23:59;6.38;;;3.28;;
37239;SDS011;23130;48.760;9.178;2023-05-07T03:26:25;4.40;;;2.78;;
37239;SDS011;23130;48.760;9.178;2023-05-07T03:28:51;5.25;;;2.63;;
37239;SDS011;23130;48.760;9.178;2023-05-07T03:31:17;6.05;;;3.40;;
37239;SDS011;23130;48.760;9.178;2023-05-07T03:33:52;6.97;;;3.03;;
37239;SDS011;23130;48.760;9.178;2023-05-07T03:36:19;3.15;;;2.47;;
37239;SDS011;23130;48.760;9.178;2023-05-07T03:38:45;4.30;;;2.90;;
37239;SDS011;23130;48.760;9.178;2023-05-07T03:41:11;4.50;;;2.72;;
37239;SDS011;23130;48.760;9.178;2023-05-07T03:43:37;6.78;;;4.03;;
37239;SDS011;23130;48.760;9.178;2023-05-07T03:46:02;5.88;;;3.38;;
37239;SDS011;23130;48.760;9.178;2023-05-07T03:48:28;3.60;;;2.92;;
37239;SDS011;23130;48.760;9.178;2023-05-07T03:50:53;4.35;;;3.03;;
37239;SDS011;23130;48.760;9.178;2023-05-07T03:53:19;5.68;;;3.30;;
37239;SDS011;23130;48.760;9.178;2023-05-07T03:55:45;4.60;;;2.70;;
37239;SDS011;23130;48.760;9.178;2023-05-07T03:58:10;4.70;;;3.50;;
37239;SDS011;23130;48.760;9.178;2023-05-07T04:00:36;7.03;;;3.40;;
37239;SDS011;23130;48.760;9.178;2023-05-07T04:03:04;5.03;;;4.03;;
37239;SDS011;23130;48.760;9.178;2023-05-07T04:05:30;7.13;;;3.85;;
37239;SDS011;23130;48.760;9.178;2023-05-07T04:07:57;6.07;;;3.60;;
37239;SDS011;23130;48.760;9.178;2023-05-07T04:10:23;8.07;;;3.95;;
37239;SDS011;23130;48.760;9.178;2023-05-07T04:12:49;6.25;;;4.78;;
37239;SDS011;23130;48.760;9.178;2023-05-07T04:15:15;8.15;;;4.35;;
37239;SDS011;23130;48.760;9.178;2023-05-07T04:17:40;6.18;;;3.90;;
37239;SDS011;23130;48.760;9.178;2023-05-07T04:20:08;6.45;;;3.80;;
37239;SDS011;23130;48.760;9.178;2023-05-07T04:22:35;6.45;;;3.90;;
37239;SDS011;23130;48.760;9.178;2023-05-07T04:25:01;5.82;;;3.90;;
37239;SDS011;23130;48.760;9.178;2023-05-07T04:27:27;7.07;;;4.05;;
37239;SDS011;23130;48.760;9.178;2023-05-07T04:29:53;6.57;;;3.60;;
37239;SDS011;23130;48.760;9.178;2023-05-07T04:32:20;7.20;;;4.18;;
37239;SDS011;23130;48.760;9.178;2023-05-07T04:34:46;5.57;;;3.88;;
37239;SDS011;23130;48.760;9.178;2023-05-07T04:37:12;4.15;;;2.90;;
37239;SDS011;23130;48.760;9.178;2023-05-07T04:39:37;4.88;;;3.40;;
37239;SDS011;23130;48.760;9.178;2023-05-07T04:42:03;4.20;;;2.83;;
37239;SDS011;23130;48.760;9.178;2023-05-07T04:44:28;6.38;;;3.88;;
37239;SDS011;23130;48.760;9.178;2023-05-07T04:46:56;4.43;;;3.17;;
37239;SDS011;23130;48.760;9.178;2023-05-07T04:49:21;6.57;;;4.65;;
37239;SDS011;23130;48.760;9.178;2023-05-07T04:51:47;6.95;;;3.28;;
37239;SDS011;23130;48.760;9.178;2023-05-07T04:54:13;4.78;;;3.25;;
37239;SDS011;23130;48.760;9.178;2023-05-07T04:56:38;4.68;;;3.70;;
37239;SDS011;23130;48.760;9.178;2023-05-07T04:59:04;6.70;;;2.20;;
37239;SDS011;23130;48.760;9.178;2023-05-07T05:01:30;4.90;;;2.60;;
37239;SDS011;23130;48.760;9.178;2023-05-07T05:03:56;5.28;;;2.58;;
37239;SDS011;23130;48.760;9.178;2023-05-07T05:06:21;4.38;;;2.45;;
37239;SDS011;23130;48.760;9.178;2023-05-07T05:08:47;4.30;;;2.65;;
37239;SDS011;23130;48.760;9.178;2023-05-07T05:11:12;4.90;;;3.40;;
37239;SDS011;23130;48.760;9.178;2023-05-07T05:13:38;5.13;;;2.85;;
37239;SDS011;23130;48.760;9.178;2023-05-07T05:16:04;5.47;;;2.78;;
37239;SDS011;23130;48.760;9.178;2023-05-07T05:18:30;3.50;;;2.83;;
37239;SDS011;23130;48.760;9.178;2023-05-07T05:20:55;4.50;;;2.70;;
37239;SDS011;23130;48.760;9.178;2023-05-07T05:23:21;3.97;;;2.50;;
37239;SDS011;23130;48.760;9.178;2023-05-07T05:25:46;9.10;;;3.00;;
37239;SDS011;23130;48.760;9.178;2023-05-07T05:28:12;6.20;;;3.20;;
37239;SDS011;23130;48.760;9.178;2023-05-07T05:30:38;5.60;;;2.70;;
37239;SDS011;23130;48.760;9.178;2023-05-07T05:33:04;3.58;;;2.28;;
37239;SDS011;23130;48.760;9.178;2023-05-07T05:35:29;3.53;;;2.72;;
37239;SDS011;23130;48.760;9.178;2023-05-07T05:37:55;4.50;;;3.10;;
37239;SDS011;23130;48.760;9.178;2023-05-07T05:40:21;4.15;;;2.78;;
37239;SDS011;23130;48.760;9.178;2023-05-07T05:42:46;4.25;;;3.13;;
37239;SDS011;23130;48.760;9.178;2023-05-07T05:45:12;4.22;;;2.78;;
37239;SDS011;23130;48.760;9.178;2023-05-07T05:47:38;3.38;;;2.80;;
37239;SDS011;23130;48.760;9.178;2023-05-07T05:50:04;3.28;;;2.72;;
37239;SDS011;23130;48.760;9.178;2023-05-07T05:52:31;4.60;;;2.55;;
37239;SDS011;23130;48.760;9.178;2023-05-07T05:54:56;3.00;;;2.47;;
37239;SDS011;23130;48.760;9.178;2023-05-07T05:57:22;5.22;;;3.10;;
37239;SDS011;23130;48.760;9.178;2023-05-07T05:59:47;6.53;;;2.70;;
37239;SDS011;23130;48.760;9.178;2023-05-07T06:02:13;4.93;;;3.35;;
37239;SDS011;23130;48.760;9.178;2023-05-07T06:04:39;4.85;;;2.90;;
37239;SDS011;23130;48.760;9.178;2023-05-07T06:07:05;3.95;;;2.65;;
37239;SDS011;23130;48.760;9.178;2023-05-07T06:09:30;4.53;;;3.20;;
37239;SDS011;23130;48.760;9.178;2023-05-07T06:11:56;4.70;;;2.90;;
37239;SDS011;23130;48.760;9.178;2023-05-07T06:14:21;3.45;;;2.53;;
37239;SDS011;23130;48.760;9.178;2023-05-07T06:16:47;4.03;;;2.58;;
37239;SDS011;23130;48.760;9.178;2023-05-07T06:19:13;2.92;;;2.38;;
37239;SDS011;23130;48.760;9.178;2023-05-07T06:21:39;3.60;;;2.05;;
37239;SDS011;23130;48.760;9.178;2023-05-07T06:24:05;3.45;;;2.80;;
37239;SDS011;23130;48.760;9.178;2023-05-07T06:26:31;4.72;;;2.78;;
37239;SDS011;23130;48.760;9.178;2023-05-07T06:28:56;8.02;;;2.92;;
37239;SDS011;23130;48.760;9.178;2023-05-07T06:31:22;4.65;;;3.42;;
37239;SDS011;23130;48.760;9.178;2023-05-07T06:33:48;4.80;;;3.78;;
37239;SDS011;23130;48.760;9.178;2023-05-07T06:36:14;4.45;;;3.20;;
37239;SDS011;23130;48.760;9.178;2023-05-07T06:38:40;5.55;;;3.58;;
37239;SDS011;23130;48.760;9.178;2023-05-07T06:41:06;6.10;;;3.65;;
37239;SDS011;23130;48.760;9.178;2023-05-07T06:43:32;4.10;;;2.83;;
37239;SDS011;23130;48.760;9.178;2023-05-07T06:45:58;5.75;;;3.35;;
37239;SDS011;23130;48.760;9.178;2023-05-07T06:48:23;4.60;;;3.20;;
37239;SDS011;23130;48.760;9.178;2023-05-07T06:50:49;4.75;;;3.17;;
37239;SDS011;23130;48.760;9.178;2023-05-07T06:53:15;5.20;;;2.90;;
37239;SDS011;23130;48.760;9.178;2023-05-07T06:55:40;3.55;;;2.90;;
37239;SDS011;23130;48.760;9.178;2023-05-07T06:58:06;3.97;;;2.45;;
37239;SDS011;23130;48.760;9.178;2023-05-07T07:00:32;4.63;;;2.95;;
37239;SDS011;23130;48.760;9.178;2023-05-07T07:02:57;3.80;;;2.75;;
37239;SDS011;23130;48.760;9.178;2023-05-07T07:05:24;4.32;;;3.10;;
37239;SDS011;23130;48.760;9.178;2023-05-07T07:07:50;5.07;;;3.60;;
37239;SDS011;23130;48.760;9.178;2023-05-07T07:10:21;3.78;;;2.63;;
37239;SDS011;23130;48.760;9.178;2023-05-07T07:12:47;4.53;;;3.30;;
37239;SDS011;23130;48.760;9.178;2023-05-07T07:15:13;3.67;;;3.28;;
37239;SDS011;23130;48.760;9.178;2023-05-07T07:17:39;6.40;;;3.63;;
37239;SDS011;23130;48.760;9.178;2023-05-07T07:20:05;4.22;;;3.50;;
37239;SDS011;23130;48.760;9.178;2023-05-07T07:22:31;6.30;;;4.18;;
37239;SDS011;23130;48.760;9.178;2023-05-07T07:24:57;5.05;;;3.45;;
37239;SDS011;23130;48.760;9.178;2023-05-07T07:27:23;4.65;;;3.40;;
37239;SDS011;23130;48.760;9.178;2023-05-07T07:29:48;4.47;;;3.67;;
37239;SDS011;23130;48.760;9.178;2023-05-07T07:32:14;8.27;;;4.32;;
37239;SDS011;23130;48.760;9.178;2023-05-07T07:34:40;6.80;;;3.75;;
37239;SDS011;23130;48.760;9.178;2023-05-07T07:37:05;3.65;;;3.30;;
37239;SDS011;23130;48.760;9.178;2023-05-07T07:39:34;6.03;;;3.53;;
37239;SDS011;23130;48.760;9.178;2023-05-07T07:42:00;4.93;;;3.55;;
37239;SDS011;23130;48.760;9.178;2023-05-07T07:44:27;4.50;;;3.30;;
37239;SDS011;23130;48.760;9.178;2023-05-07T07:46:53;5.72;;;3.40;;
37239;SDS011;23130;48.760;9.178;2023-05-07T07:49:18;3.60;;;3.00;;
37239;SDS011;23130;48.760;9.178;2023-05-07T07:51:44;2.50;;;2.10;;
37239;SDS011;23130;48.760;9.178;2023-05-07T07:54:10;3.67;;;2.00;;
37239;SDS011;23130;48.760;9.178;2023-05-07T07:56:36;2.90;;;2.17;;
37239;SDS011;23130;48.760;9.178;2023-05-07T07:59:01;2.95;;;2.40;;
37239;SDS011;23130;48.760;9.178;2023-05-07T08:01:29;3.22;;;2.70;;
37239;SDS011;23130;48.760;9.178;2023-05-07T08:03:55;3.45;;;2.55;;
37239;SDS011;23130;48.760;9.178;2023-05-07T08:06:22;3.53;;;2.55;;
37239;SDS011;23130;48.760;9.178;2023-05-07T08:08:48;3.55;;;2.05;;
37239;SDS011;23130;48.760;9.178;2023-05-07T08:11:15;2.10;;;1.90;;
37239;SDS011;23130;48.760;9.178;2023-05-07T08:13:40;2.45;;;1.80;;
37239;SDS011;23130;48.760;9.178;2023-05-07T08:16:06;2.88;;;2.03;;
37239;SDS011;23130;48.760;9.178;2023-05-07T08:18:31;2.92;;;2.60;;
37239;SDS011;23130;48.760;9.178;2023-05-07T08:20:57;2.85;;;2.00;;
37239;SDS011;23130;48.760;9.178;2023-05-07T08:23:23;3.40;;;2.53;;
37239;SDS011;23130;48.760;9.178;2023-05-07T08:25:51;4.15;;;2.88;;
37239;SDS011;23130;48.760;9.178;2023-05-07T08:28:17;3.38;;;2.45;;
37239;SDS011;23130;48.760;9.178;2023-05-07T08:30:42;5.85;;;2.35;;
37239;SDS011;23130;48.760;9.178;2023-05-07T08:33:08;3.25;;;1.98;;
37239;SDS011;23130;48.760;9.178;2023-05-07T08:35:34;3.03;;;2.10;;
37239;SDS011;23130;48.760;9.178;2023-05-07T08:38:00;3.28;;;2.13;;
37239;SDS011;23130;48.760;9.178;2023-05-07T08:40:26;4.20;;;2.70;;
37239;SDS011;23130;48.760;9.178;2023-05-07T08:42:52;4.80;;;2.17;;
37239;SDS011;23130;48.760;9.178;2023-05-07T08:45:19;3.22;;;1.80;;
37239;SDS011;23130;48.760;9.178;2023-05-07T08:47:52;2.72;;;1.90;;
37239;SDS011;23130;48.760;9.178;2023-05-07T08:50:24;3.53;;;1.98;;
37239;SDS011;23130;48.760;9.178;2023-05-07T08:52:49;6.93;;;2.83;;
37239;SDS011;23130;48.760;9.178;2023-05-07T08:55:15;4.07;;;2.15;;
37239;SDS011;23130;48.760;9.178;2023-05-07T08:57:42;4.20;;;1.98;;
37239;SDS011;23130;48.760;9.178;2023-05-07T09:00:07;5.13;;;2.60;;
37239;SDS011;23130;48.760;9.178;2023-05-07T09:02:35;4.53;;;3.08;;
37239;SDS011;23130;48.760;9.178;2023-05-07T09:05:01;4.82;;;2.67;;
37239;SDS011;23130;48.760;9.178;2023-05-07T09:07:26;5.78;;;2.05;;
37239;SDS011;23130;48.760;9.178;2023-05-07T09:09:52;5.10;;;1.80;;
37239;SDS011;23130;48.760;9.178;2023-05-07T09:12:23;2.88;;;2.17;;
37239;SDS011;23130;48.760;9.178;2023-05-07T09:14:49;6.18;;;2.40;;
37239;SDS011;23130;48.760;9.178;2023-05-07T09:17:15;4.20;;;2.50;;
37239;SDS011;23130;48.760;9.178;2023-05-07T09:19:42;4.50;;;1.75;;
37239;SDS011;23130;48.760;9.178;2023-05-07T09:22:12;4.57;;;1.92;;
37239;SDS011;23130;48.760;9.178;2023-05-07T09:24:38;2.58;;;1.85;;
37239;SDS011;23130;48.760;9.178;2023-05-07T09:27:04;2.45;;;1.48;;
37239;SDS011;23130;48.760;9.178;2023-05-07T09:29:30;2.80;;;1.73;;
37239;SDS011;23130;48.760;9.178;2023-05-07T09:32:05;2.78;;;1.50;;
37239;SDS011;23130;48.760;9.178;2023-05-07T09:34:32;3.03;;;1.55;;
37239;SDS011;23130;48.760;9.178;2023-05-07T09:37:00;2.03;;;1.67;;
37239;SDS011;23130;48.760;9.178;2023-05-07T09:39:38;2.38;;;1.58;;
37239;SDS011;23130;48.760;9.178;2023-05-07T09:42:10;2.30;;;1.23;;
37239;SDS011;23130;48.760;9.178;2023-05-07T09:44:37;4.03;;;1.50;;
37239;SDS011;23130;48.760;9.178;2023-05-07T09:47:06;4.25;;;1.75;;
37239;SDS011;23130;48.760;9.178;2023-05-07T09:49:36;4.72;;;1.92;;
37239;SDS011;23130;48.760;9.178;2023-05-07T09:52:05;4.22;;;1.50;;
37239;SDS011;23130;48.760;9.178;2023-05-07T09:54:33;3.13;;;1.80;;
37239;SDS011;23130;48.760;9.178;2023-05-07T09:57:01;1.90;;;1.50;;
37239;SDS011;23130;48.760;9.178;2023-05-07T09:59:31;3.45;;;1.73;;
37239;SDS011;23130;48.760;9.178;2023-05-07T10:01:58;3.30;;;1.33;;
37239;SDS011;23130;48.760;9.178;2023-05-07T10:04:28;3.35;;;1.67;;
37239;SDS011;23130;48.760;9.178;2023-05-07T10:06:54;2.20;;;1.65;;
37239;SDS011;23130;48.760;9.178;2023-05-07T10:09:20;3.53;;;2.15;;
37239;SDS011;23130;48.760;9.178;2023-05-07T10:11:48;3.35;;;1.90;;
37239;SDS011;23130;48.760;9.178;2023-05-07T10:14:14;5.00;;;1.48;;
37239;SDS011;23130;48.760;9.178;2023-05-07T10:16:40;3.60;;;1.60;;
37239;SDS011;23130;48.760;9.178;2023-05-07T10:19:07;2.92;;;1.60;;
37239;SDS011;23130;48.760;9.178;2023-05-07T10:21:35;3.00;;;1.50;;
37239;SDS011;23130;48.760;9.178;2023-05-07T10:24:06;2.47;;;1.65;;
37239;SDS011;23130;48.760;9.178;2023-05-07T10:26:39;2.80;;;1.80;;
37239;SDS011;23130;48.760;9.178;2023-05-07T10:31:52;5.47;;;2.00;;
37239;SDS011;23130;48.760;9.178;2023-05-07T10:34:39;2.22;;;2.03;;
37239;SDS011;23130;48.760;9.178;2023-05-07T10:37:08;3.38;;;1.60;;
37239;SDS011;23130;48.760;9.178;2023-05-07T10:39:35;2.92;;;1.90;;
37239;SDS011;23130;48.760;9.178;2023-05-07T10:42:08;3.75;;;1.77;;
37239;SDS011;23130;48.760;9.178;2023-05-07T10:44:37;3.03;;;2.15;;
37239;SDS011;23130;48.760;9.178;2023-05-07T10:47:10;3.33;;;1.85;;
37239;SDS011;23130;48.760;9.178;2023-05-07T10:52:18;2.85;;;2.08;;
37239;SDS011;23130;48.760;9.178;2023-05-07T10:54:46;4.38;;;2.58;;
37239;SDS011;23130;48.760;9.178;2023-05-07T11:05:26;7.88;;;2.17;;
37239;SDS011;23130;48.760;9.178;2023-05-07T11:07:55;7.70;;;1.80;;
37239;SDS011;23130;48.760;9.178;2023-05-07T11:10:22;2.78;;;1.77;;
37239;SDS011;23130;48.760;9.178;2023-05-07T11:13:08;3.38;;;2.15;;
37239;SDS011;23130;48.760;9.178;2023-05-07T11:15:35;2.65;;;1.63;;
37239;SDS011;23130;48.760;9.178;2023-05-07T11:18:06;3.03;;;1.85;;
37239;SDS011;23130;48.760;9.178;2023-05-07T11:20:51;2.92;;;2.20;;
37239;SDS011;23130;48.760;9.178;2023-05-07T11:26:07;2.88;;;1.35;;
37239;SDS011;23130;48.760;9.178;2023-05-07T11:28:37;2.67;;;1.55;;
37239;SDS011;23130;48.760;9.178;2023-05-07T11:31:07;1.98;;;1.77;;
37239;SDS011;23130;48.760;9.178;2023-05-07T11:33:34;1.92;;;1.50;;
37239;SDS011;23130;48.760;9.178;2023-05-07T11:36:01;3.30;;;1.92;;
37239;SDS011;23130;48.760;9.178;2023-05-07T11:38:28;3.38;;;1.30;;
37239;SDS011;23130;48.760;9.178;2023-05-07T11:41:03;2.28;;;1.40;;
37239;SDS011;23130;48.760;9.178;2023-05-07T11:43:32;3.28;;;1.60;;
37239;SDS011;23130;48.760;9.178;2023-05-07T11:46:05;2.65;;;1.60;;
37239;SDS011;23130;48.760;9.178;2023-05-07T11:48:33;2.00;;;1.58;;
37239;SDS011;23130;48.760;9.178;2023-05-07T11:51:03;3.35;;;1.40;;
37239;SDS011;23130;48.760;9.178;2023-05-07T11:53:35;2.97;;;1.63;;
37239;SDS011;23130;48.760;9.178;2023-05-07T11:58:34;4.35;;;1.60;;
37239;SDS011;23130;48.760;9.178;2023-05-07T12:01:01;3.38;;;1.63;;
37239;SDS011;23130;48.760;9.178;2023-05-07T12:03:27;3.47;;;1.60;;
37239;SDS011;23130;48.760;9.178;2023-05-07T12:05:52;3.95;;;2.10;;
37239;SDS011;23130;48.760;9.178;2023-05-07T12:08:18;2.30;;;1.73;;
37239;SDS011;23130;48.760;9.178;2023-05-07T12:10:46;3.90;;;1.90;;
37239;SDS011;23130;48.760;9.178;2023-05-07T12:13:20;5.53;;;2.10;;
37239;SDS011;23130;48.760;9.178;2023-05-07T12:15:56;2.30;;;1.70;;
37239;SDS011;23130;48.760;9.178;2023-05-07T12:18:22;2.20;;;1.88;;
37239;SDS011;23130;48.760;9.178;2023-05-07T12:20:48;2.05;;;0.80;;
37239;SDS011;23130;48.760;9.178;2023-05-07T12:23:15;2.00;;;0.60;;
37239;SDS011;23130;48.760;9.178;2023-05-07T12:25:41;1.40;;;0.70;;
37239;SDS011;23130;48.760;9.178;2023-05-07T12:28:15;2.35;;;1.30;;
37239;SDS011;23130;48.760;9.178;2023-05-07T12:30:42;3.75;;;1.33;;
37239;SDS011;23130;48.760;9.178;2023-05-07T12:33:12;5.72;;;1.73;;
37239;SDS011;23130;48.760;9.178;2023-05-07T12:35:41;5.70;;;2.20;;
37239;SDS011;23130;48.760;9.178;2023-05-07T12:38:14;5.40;;;2.50;;
37239;SDS011;23130;48.760;9.178;2023-05-07T12:40:45;12.68;;;4.32;;
37239;SDS011;23130;48.760;9.178;2023-05-07T12:43:24;6.95;;;3.03;;
37239;SDS011;23130;48.760;9.178;2023-05-07T12:45:51;10.60;;;3.45;;
37239;SDS011;23130;48.760;9.178;2023-05-07T12:48:19;13.27;;;4.13;;
37239;SDS011;23130;48.760;9.178;2023-05-07T12:50:45;16.88;;;5.85;;
37239;SDS011;23130;48.760;9.178;2023-05-07T12:53:14;15.60;;;4.82;;
37239;SDS011;23130;48.760;9.178;2023-05-07T12:55:40;15.68;;;5.75;;
37239;SDS011;23130;48.760;9.178;2023-05-07T12:58:06;8.52;;;1.88;;
37239;SDS011;23130;48.760;9.178;2023-05-07T13:00:33;3.40;;;1.30;;
37239;SDS011;23130;48.760;9.178;2023-05-07T13:02:59;4.20;;;1.52;;
37239;SDS011;23130;48.760;9.178;2023-05-07T13:05:25;4.82;;;1.92;;
37239;SDS011;23130;48.760;9.178;2023-05-07T13:07:53;2.67;;;1.08;;
37239;SDS011;23130;48.760;9.178;2023-05-07T13:10:21;6.10;;;1.77;;
37239;SDS011;23130;48.760;9.178;2023-05-07T13:12:50;5.30;;;1.65;;
37239;SDS011;23130;48.760;9.178;2023-05-07T13:15:16;7.47;;;2.60;;
37239;SDS011;23130;48.760;9.178;2023-05-07T13:17:41;11.07;;;2.17;;
37239;SDS011;23130;48.760;9.178;2023-05-07T13:20:08;6.57;;;2.00;;
37239;SDS011;23130;48.760;9.178;2023-05-07T13:22:35;2.20;;;1.40;;
37239;SDS011;23130;48.760;9.178;2023-05-07T13:25:00;5.25;;;1.92;;
37239;SDS011;23130;48.760;9.178;2023-05-07T13:27:26;3.97;;;1.65;;
37239;SDS011;23130;48.760;9.178;2023-05-07T13:29:52;3.92;;;1.98;;
37239;SDS011;23130;48.760;9.178;2023-05-07T13:32:17;3.50;;;1.65;;
37239;SDS011;23130;48.760;9.178;2023-05-07T13:34:43;4.22;;;2.00;;
37239;SDS011;23130;48.760;9.178;2023-05-07T13:37:08;5.35;;;2.17;;
37239;SDS011;23130;48.760;9.178;2023-05-07T13:39:34;3.80;;;2.10;;
37239;SDS011;23130;48.760;9.178;2023-05-07T13:41:59;5.10;;;2.67;;
37239;SDS011;23130;48.760;9.178;2023-05-07T13:44:25;6.97;;;2.38;;
37239;SDS011;23130;48.760;9.178;2023-05-07T13:46:51;5.15;;;1.05;;
37239;SDS011;23130;48.760;9.178;2023-05-07T13:49:17;3.38;;;1.02;;
37239;SDS011;23130;48.760;9.178;2023-05-07T13:51:42;3.00;;;0.90;;
37239;SDS011;23130;48.760;9.178;2023-05-07T13:54:08;3.20;;;1.38;;
37239;SDS011;23130;48.760;9.178;2023-05-07T13:56:33;7.40;;;1.58;;
37239;SDS011;23130;48.760;9.178;2023-05-07T13:58:59;3.28;;;1.25;;
37239;SDS011;23130;48.760;9.178;2023-05-07T14:01:24;4.95;;;2.25;;
37239;SDS011;23130;48.760;9.178;2023-05-07T14:03:50;7.18;;;2.15;;
37239;SDS011;23130;48.760;9.178;2023-05-07T14:06:16;5.10;;;2.85;;
37239;SDS011;23130;48.760;9.178;2023-05-07T14:08:41;5.18;;;2.53;;
37239;SDS011;23130;48.760;9.178;2023-05-07T14:11:07;7.72;;;2.90;;
37239;SDS011;23130;48.760;9.178;2023-05-07T14:13:32;6.25;;;3.08;;
37239;SDS011;23130;48.760;9.178;2023-05-07T14:15:59;7.03;;;3.90;;
37239;SDS011;23130;48.760;9.178;2023-05-07T14:18:25;7.18;;;2.95;;
37239;SDS011;23130;48.760;9.178;2023-05-07T14:20:51;5.15;;;3.00;;
37239;SDS011;23130;48.760;9.178;2023-05-07T14:23:17;4.68;;;3.00;;
37239;SDS011;23130;48.760;9.178;2023-05-07T14:25:44;3.35;;;2.15;;
37239;SDS011;23130;48.760;9.178;2023-05-07T14:28:12;6.18;;;2.47;;
37239;SDS011;23130;48.760;9.178;2023-05-07T14:30:38;4.97;;;3.15;;
37239;SDS011;23130;48.760;9.178;2023-05-07T14:33:04;3.85;;;2.80;;
37239;SDS011;23130;48.760;9.178;2023-05-07T14:35:29;6.03;;;2.63;;
37239;SDS011;23130;48.760;9.178;2023-05-07T14:37:57;7.40;;;3.38;;
37239;SDS011;23130;48.760;9.178;2023-05-07T14:40:23;5.82;;;3.00;;
37239;SDS011;23130;48.760;9.178;2023-05-07T14:42:48;4.35;;;2.60;;
37239;SDS011;23130;48.760;9.178;2023-05-07T14:45:14;4.72;;;2.35;;
37239;SDS011;23130;48.760;9.178;2023-05-07T14:47:40;5.00;;;2.88;;
37239;SDS011;23130;48.760;9.178;2023-05-07T14:50:05;4.43;;;2.42;;
37239;SDS011;23130;48.760;9.178;2023-05-07T14:52:31;5.30;;;2.53;;
37239;SDS011;23130;48.760;9.178;2023-05-07T14:54:57;2.33;;;1.80;;
37239;SDS011;23130;48.760;9.178;2023-05-07T14:57:23;4.30;;;2.42;;
37239;SDS011;23130;48.760;9.178;2023-05-07T14:59:49;2.58;;;2.00;;
37239;SDS011;23130;48.760;9.178;2023-05-07T15:02:15;5.82;;;2.08;;
37239;SDS011;23130;48.760;9.178;2023-05-07T15:04:42;3.38;;;2.00;;